sensor_id;sensor_type;location;lat;lon;timestamp;pressure;altitude;pressure_sealevel;temperature;humidity
9969;BME280;5025;48.890;9.278;2023-04-24T00:02:18;97754.72;;;12.23;72.48
9969;BME280;5025;48.890;9.278;2023-04-24T00:04:44;97757.69;;;12.27;72.82
9969;BME280;5025;48.890;9.278;2023-04-24T00:07:12;97756.34;;;12.29;72.66
9969;BME280;5025;48.890;9.278;2023-04-24T00:09:38;97760.44;;;12.32;72.50
9969;BME280;5025;48.890;9.278;2023-04-24T00:12:03;97768.84;;;12.35;72.39
9969;BME280;5025;48.890;9.278;2023-04-24T00:14:32;97765.06;;;12.36;72.38
9969;BME280;5025;48.890;9.278;2023-04-24T00:16:57;97773.72;;;12.38;72.37
9969;BME280;5025;48.890;9.278;2023-04-24T00:19:23;97770.22;;;12.43;72.12
9969;BME280;5025;48.890;9.278;2023-04-24T00:21:48;97774.56;;;12.44;71.96
9969;BME280;5025;48.890;9.278;2023-04-24T00:24:17;97778.34;;;12.48;71.74
9969;BME280;5025;48.890;9.278;2023-04-24T00:26:44;97768.34;;;12.49;71.58
9969;BME280;5025;48.890;9.278;2023-04-24T00:29:09;97764.53;;;12.50;71.18
9969;BME280;5025;48.890;9.278;2023-04-24T00:31:34;97761.03;;;12.49;71.20
9969;BME280;5025;48.890;9.278;2023-04-24T00:34:01;97765.91;;;12.47;71.11
9969;BME280;5025;48.890;9.278;2023-04-24T00:36:27;97773.19;;;12.42;71.24
9969;BME280;5025;48.890;9.278;2023-04-24T00:38:53;97774.25;;;12.41;71.14
9969;BME280;5025;48.890;9.278;2023-04-24T00:41:18;97769.69;;;12.41;71.10
9969;BME280;5025;48.890;9.278;2023-04-24T00:43:44;97771.56;;;12.41;71.08
9969;BME280;5025;48.890;9.278;2023-04-24T00:46:10;97766.41;;;12.39;70.97
9969;BME280;5025;48.890;9.278;2023-04-24T00:48:37;97763.41;;;12.35;71.04
9969;BME280;5025;48.890;9.278;2023-04-24T00:51:03;97769.09;;;12.34;70.95
9969;BME280;5025;48.890;9.278;2023-04-24T00:53:29;97757.44;;;12.28;70.97
9969;BME280;5025;48.890;9.278;2023-04-24T00:55:55;97755.50;;;12.24;71.03
9969;BME280;5025;48.890;9.278;2023-04-24T00:58:20;97759.31;;;12.23;71.24
9969;BME280;5025;48.890;9.278;2023-04-24T01:00:46;97756.09;;;12.26;70.91
9969;BME280;5025;48.890;9.278;2023-04-24T01:03:13;97743.09;;;12.23;71.06
9969;BME280;5025;48.890;9.278;2023-04-24T01:05:39;97740.63;;;12.21;70.99
9969;BME280;5025;48.890;9.278;2023-04-24T01:08:04;97751.72;;;12.19;71.07
9969;BME280;5025;48.890;9.278;2023-04-24T01:10:31;97750.09;;;12.18;70.83
9969;BME280;5025;48.890;9.278;2023-04-24T01:12:58;97750.34;;;12.17;70.62
9969;BME280;5025;48.890;9.278;2023-04-24T01:15:24;97746.00;;;12.11;70.44
9969;BME280;5025;48.890;9.278;2023-04-24T01:17:49;97746.28;;;12.14;70.48
9969;BME280;5025;48.890;9.278;2023-04-24T01:20:15;97740.91;;;12.19;70.16
9969;BME280;5025;48.890;9.278;2023-04-24T01:22:41;97746.31;;;12.25;69.93
9969;BME280;5025;48.890;9.278;2023-04-24T01:25:07;97737.69;;;12.28;70.12
9969;BME280;5025;48.890;9.278;2023-04-24T01:27:32;97738.53;;;12.33;69.92
9969;BME280;5025;48.890;9.278;2023-04-24T01:29:58;97741.22;;;12.38;69.66
9969;BME280;5025;48.890;9.278;2023-04-24T01:32:24;97725.78;;;12.39;69.50
9969;BME280;5025;48.890;9.278;2023-04-24T01:34:50;97722.81;;;12.41;69.34
9969;BME280;5025;48.890;9.278;2023-04-24T01:37:15;97726.63;;;12.40;69.31
9969;BME280;5025;48.890;9.278;2023-04-24T01:39:41;97717.94;;;12.37;69.42
9969;BME280;5025;48.890;9.278;2023-04-24T01:42:07;97716.59;;;12.40;69.33
9969;BME280;5025;48.890;9.278;2023-04-24T01:44:33;97715.78;;;12.40;69.27
9969;BME280;5025;48.890;9.278;2023-04-24T01:47:00;97710.66;;;12.43;69.19
9969;BME280;5025;48.890;9.278;2023-04-24T01:49:26;97712.00;;;12.41;69.11
9969;BME280;5025;48.890;9.278;2023-04-24T01:51:51;97711.19;;;12.40;69.32
9969;BME280;5025;48.890;9.278;2023-04-24T01:54:17;97710.66;;;12.38;69.15
9969;BME280;5025;48.890;9.278;2023-04-24T01:56:43;97715.22;;;12.37;68.93
9969;BME280;5025;48.890;9.278;2023-04-24T01:59:12;97713.63;;;12.36;68.82
9969;BME280;5025;48.890;9.278;2023-04-24T02:01:38;97708.44;;;12.30;69.03
9969;BME280;5025;48.890;9.278;2023-04-24T02:04:05;97720.63;;;12.32;69.01
9969;BME280;5025;48.890;9.278;2023-04-24T02:06:31;97722.50;;;12.27;69.21
9969;BME280;5025;48.890;9.278;2023-04-24T02:08:57;97716.81;;;12.23;69.36
9969;BME280;5025;48.890;9.278;2023-04-24T02:11:23;97723.56;;;12.20;69.36
9969;BME280;5025;48.890;9.278;2023-04-24T02:13:48;97721.38;;;12.17;69.52
9969;BME280;5025;48.890;9.278;2023-04-24T02:16:14;97716.25;;;12.16;69.61
9969;BME280;5025;48.890;9.278;2023-04-24T02:18:39;97721.13;;;12.14;69.61
9969;BME280;5025;48.890;9.278;2023-04-24T02:21:04;97713.25;;;12.12;69.67
9969;BME280;5025;48.890;9.278;2023-04-24T02:23:30;97719.47;;;12.13;69.93
9969;BME280;5025;48.890;9.278;2023-04-24T02:25:55;97717.31;;;12.10;69.75
9969;BME280;5025;48.890;9.278;2023-04-24T02:28:21;97720.28;;;12.08;70.09
9969;BME280;5025;48.890;9.278;2023-04-24T02:30:46;97717.28;;;12.05;70.62
9969;BME280;5025;48.890;9.278;2023-04-24T02:33:12;97718.13;;;12.10;70.14
9969;BME280;5025;48.890;9.278;2023-04-24T02:35:37;97719.75;;;12.11;70.36
9969;BME280;5025;48.890;9.278;2023-04-24T02:38:03;97719.75;;;12.11;70.16
9969;BME280;5025;48.890;9.278;2023-04-24T02:40:29;97724.88;;;12.08;70.49
9969;BME280;5025;48.890;9.278;2023-04-24T02:42:54;97727.59;;;12.08;70.67
9969;BME280;5025;48.890;9.278;2023-04-24T02:45:20;97730.53;;;12.01;70.98
9969;BME280;5025;48.890;9.278;2023-04-24T02:47:45;97734.56;;;11.93;71.46
9969;BME280;5025;48.890;9.278;2023-04-24T02:50:10;97733.44;;;11.89;71.90
9969;BME280;5025;48.890;9.278;2023-04-24T02:52:36;97733.94;;;11.86;72.66
9969;BME280;5025;48.890;9.278;2023-04-24T02:55:02;97739.38;;;11.86;72.61
9969;BME280;5025;48.890;9.278;2023-04-24T02:57:27;97738.56;;;11.86;73.02
9969;BME280;5025;48.890;9.278;2023-04-24T02:59:52;97733.94;;;11.86;73.56
9969;BME280;5025;48.890;9.278;2023-04-24T03:02:17;97717.47;;;11.88;73.91
9969;BME280;5025;48.890;9.278;2023-04-24T03:04:43;97721.53;;;11.90;73.58
9969;BME280;5025;48.890;9.278;2023-04-24T03:07:08;97712.31;;;11.91;73.99
9969;BME280;5025;48.890;9.278;2023-04-24T03:09:33;97704.81;;;11.93;74.23
9969;BME280;5025;48.890;9.278;2023-04-24T03:11:59;97712.94;;;11.93;74.27
9969;BME280;5025;48.890;9.278;2023-04-24T03:14:25;97711.03;;;11.94;74.47
9969;BME280;5025;48.890;9.278;2023-04-24T03:16:50;97711.28;;;11.92;74.65
9969;BME280;5025;48.890;9.278;2023-04-24T03:19:16;97709.38;;;11.93;74.74
9969;BME280;5025;48.890;9.278;2023-04-24T03:21:41;97700.69;;;11.91;74.95
9969;BME280;5025;48.890;9.278;2023-04-24T03:24:07;97710.16;;;11.88;75.09
9969;BME280;5025;48.890;9.278;2023-04-24T03:26:33;97706.34;;;11.79;75.83
9969;BME280;5025;48.890;9.278;2023-04-24T03:28:58;97713.09;;;11.76;76.31
9969;BME280;5025;48.890;9.278;2023-04-24T03:31:23;97715.47;;;11.68;76.22
9969;BME280;5025;48.890;9.278;2023-04-24T03:33:49;97708.97;;;11.63;76.48
9969;BME280;5025;48.890;9.278;2023-04-24T03:36:15;97708.97;;;11.63;76.64
9969;BME280;5025;48.890;9.278;2023-04-24T03:38:40;97709.75;;;11.59;77.01
9969;BME280;5025;48.890;9.278;2023-04-24T03:41:05;97714.31;;;11.53;77.11
9969;BME280;5025;48.890;9.278;2023-04-24T03:43:30;97713.19;;;11.49;77.61
9969;BME280;5025;48.890;9.278;2023-04-24T03:45:58;97708.31;;;11.46;77.53
9969;BME280;5025;48.890;9.278;2023-04-24T03:48:23;97709.94;;;11.47;77.74
9969;BME280;5025;48.890;9.278;2023-04-24T03:50:49;97709.41;;;11.45;77.60
9969;BME280;5025;48.890;9.278;2023-04-24T03:53:14;97708.56;;;11.44;77.61
9969;BME280;5025;48.890;9.278;2023-04-24T03:55:40;97706.44;;;11.46;77.66
9969;BME280;5025;48.890;9.278;2023-04-24T03:58:05;97712.38;;;11.48;77.44
9969;BME280;5025;48.890;9.278;2023-04-24T04:00:31;97718.34;;;11.51;77.55
9969;BME280;5025;48.890;9.278;2023-04-24T04:02:57;97725.94;;;11.54;77.19
9969;BME280;5025;48.890;9.278;2023-04-24T04:05:22;97712.94;;;11.51;77.47
9969;BME280;5025;48.890;9.278;2023-04-24T04:07:47;97715.94;;;11.54;77.05
9969;BME280;5025;48.890;9.278;2023-04-24T04:10:13;97715.34;;;11.47;77.31
9969;BME280;5025;48.890;9.278;2023-04-24T04:12:38;97728.31;;;11.45;77.67
9969;BME280;5025;48.890;9.278;2023-04-24T04:15:03;97728.28;;;11.40;77.76
9969;BME280;5025;48.890;9.278;2023-04-24T04:17:31;97732.06;;;11.39;77.72
9969;BME280;5025;48.890;9.278;2023-04-24T04:19:56;97730.44;;;11.38;77.77
9969;BME280;5025;48.890;9.278;2023-04-24T04:22:22;97741.50;;;11.36;78.09
9969;BME280;5025;48.890;9.278;2023-04-24T04:24:47;97746.63;;;11.33;78.28
9969;BME280;5025;48.890;9.278;2023-04-24T04:27:13;97756.31;;;11.28;78.49
9969;BME280;5025;48.890;9.278;2023-04-24T04:29:38;97776.13;;;11.07;81.50
9969;BME280;5025;48.890;9.278;2023-04-24T04:32:05;97820.31;;;10.68;86.92
9969;BME280;5025;48.890;9.278;2023-04-24T04:34:31;97820.19;;;10.36;90.32
9969;BME280;5025;48.890;9.278;2023-04-24T04:36:57;97811.84;;;10.15;89.37
9969;BME280;5025;48.890;9.278;2023-04-24T04:39:24;97798.38;;;9.98;88.83
9969;BME280;5025;48.890;9.278;2023-04-24T04:41:50;97809.63;;;9.90;88.39
9969;BME280;5025;48.890;9.278;2023-04-24T04:44:15;97813.06;;;9.85;87.67
9969;BME280;5025;48.890;9.278;2023-04-24T04:46:41;97815.16;;;9.83;87.85
9969;BME280;5025;48.890;9.278;2023-04-24T04:49:07;97826.53;;;9.85;87.80
9969;BME280;5025;48.890;9.278;2023-04-24T04:51:34;97833.38;;;9.93;87.84
9969;BME280;5025;48.890;9.278;2023-04-24T04:53:59;97831.31;;;10.00;87.71
9969;BME280;5025;48.890;9.278;2023-04-24T04:56:25;97831.31;;;10.00;87.80
9969;BME280;5025;48.890;9.278;2023-04-24T04:58:50;97835.25;;;9.93;87.12
9969;BME280;5025;48.890;9.278;2023-04-24T05:01:15;97837.06;;;9.87;87.36
9969;BME280;5025;48.890;9.278;2023-04-24T05:03:43;97833.53;;;9.86;87.55
9969;BME280;5025;48.890;9.278;2023-04-24T05:06:09;97841.63;;;9.86;88.45
9969;BME280;5025;48.890;9.278;2023-04-24T05:08:34;97844.00;;;9.83;88.17
9969;BME280;5025;48.890;9.278;2023-04-24T05:10:59;97861.59;;;9.85;87.90
9969;BME280;5025;48.890;9.278;2023-04-24T05:13:25;97866.88;;;9.80;87.82
9969;BME280;5025;48.890;9.278;2023-04-24T05:15:50;97871.66;;;9.73;88.32
9969;BME280;5025;48.890;9.278;2023-04-24T05:18:16;97877.59;;;9.75;88.65
9969;BME280;5025;48.890;9.278;2023-04-24T05:20:41;97878.28;;;9.65;88.90
9969;BME280;5025;48.890;9.278;2023-04-24T05:23:09;97887.91;;;9.61;89.93
9969;BME280;5025;48.890;9.278;2023-04-24T05:25:34;97881.78;;;9.66;89.93
9969;BME280;5025;48.890;9.278;2023-04-24T05:28:00;97883.06;;;9.80;89.48
9969;BME280;5025;48.890;9.278;2023-04-24T05:30:26;97895.19;;;9.78;88.99
9969;BME280;5025;48.890;9.278;2023-04-24T05:32:51;97893.34;;;9.66;88.70
9969;BME280;5025;48.890;9.278;2023-04-24T05:35:16;97903.66;;;9.69;89.80
9969;BME280;5025;48.890;9.278;2023-04-24T05:37:42;97900.16;;;9.69;89.23
9969;BME280;5025;48.890;9.278;2023-04-24T05:40:07;97905.53;;;9.69;89.58
9969;BME280;5025;48.890;9.278;2023-04-24T05:42:34;97896.97;;;9.72;89.39
9969;BME280;5025;48.890;9.278;2023-04-24T05:44:59;97904.63;;;9.63;89.05
9969;BME280;5025;48.890;9.278;2023-04-24T05:47:27;97915.84;;;9.72;89.07
9969;BME280;5025;48.890;9.278;2023-04-24T05:49:53;97924.25;;;9.76;88.59
9969;BME280;5025;48.890;9.278;2023-04-24T05:52:18;97921.78;;;9.91;88.23
9969;BME280;5025;48.890;9.278;2023-04-24T05:54:43;97929.63;;;9.93;88.29
9969;BME280;5025;48.890;9.278;2023-04-24T05:57:09;97934.47;;;9.91;88.22
9969;BME280;5025;48.890;9.278;2023-04-24T05:59:36;97923.94;;;9.89;88.48
9969;BME280;5025;48.890;9.278;2023-04-24T06:02:02;97929.75;;;9.98;88.37
9969;BME280;5025;48.890;9.278;2023-04-24T06:04:28;97935.69;;;10.00;87.76
9969;BME280;5025;48.890;9.278;2023-04-24T06:06:53;97940.44;;;9.93;87.83
9969;BME280;5025;48.890;9.278;2023-04-24T06:09:22;97944.28;;;9.97;87.60
9969;BME280;5025;48.890;9.278;2023-04-24T06:11:47;97948.88;;;9.96;87.21
9969;BME280;5025;48.890;9.278;2023-04-24T06:14:12;97945.56;;;9.94;87.06
9969;BME280;5025;48.890;9.278;2023-04-24T06:16:37;97940.28;;;9.99;86.84
9969;BME280;5025;48.890;9.278;2023-04-24T06:19:04;97941.25;;;10.10;86.50
9969;BME280;5025;48.890;9.278;2023-04-24T06:21:29;97940.59;;;10.20;86.23
9969;BME280;5025;48.890;9.278;2023-04-24T06:23:55;97936.16;;;10.31;85.93
9969;BME280;5025;48.890;9.278;2023-04-24T06:26:21;97937.97;;;10.42;85.47
9969;BME280;5025;48.890;9.278;2023-04-24T06:28:47;97936.47;;;10.51;84.79
9969;BME280;5025;48.890;9.278;2023-04-24T06:31:12;97935.41;;;10.52;84.76
9969;BME280;5025;48.890;9.278;2023-04-24T06:33:37;97936.97;;;10.48;84.39
9969;BME280;5025;48.890;9.278;2023-04-24T06:36:03;97928.31;;;10.46;84.17
9969;BME280;5025;48.890;9.278;2023-04-24T06:38:29;97926.78;;;10.33;83.69
9969;BME280;5025;48.890;9.278;2023-04-24T06:40:54;97924.66;;;10.35;83.68
9969;BME280;5025;48.890;9.278;2023-04-24T06:43:20;97927.38;;;10.57;83.12
9969;BME280;5025;48.890;9.278;2023-04-24T06:45:45;97928.88;;;10.70;82.63
9969;BME280;5025;48.890;9.278;2023-04-24T06:48:12;97929.50;;;10.77;82.33
9969;BME280;5025;48.890;9.278;2023-04-24T06:50:37;97935.31;;;10.86;81.97
9969;BME280;5025;48.890;9.278;2023-04-24T06:53:03;97930.47;;;10.88;81.74
9969;BME280;5025;48.890;9.278;2023-04-24T06:55:28;97929.78;;;10.76;80.92
9969;BME280;5025;48.890;9.278;2023-04-24T06:57:53;97933.28;;;10.76;80.93
9969;BME280;5025;48.890;9.278;2023-04-24T07:00:19;97939.00;;;10.80;80.04
9969;BME280;5025;48.890;9.278;2023-04-24T07:02:44;97929.66;;;10.88;79.71
9969;BME280;5025;48.890;9.278;2023-04-24T07:05:09;97934.22;;;10.87;78.75
9969;BME280;5025;48.890;9.278;2023-04-24T07:07:35;97928.41;;;10.96;78.42
9969;BME280;5025;48.890;9.278;2023-04-24T07:10:03;97925.28;;;11.09;77.97
9969;BME280;5025;48.890;9.278;2023-04-24T07:12:29;97926.50;;;10.96;74.98
9969;BME280;5025;48.890;9.278;2023-04-24T07:14:54;97924.47;;;11.08;74.84
9969;BME280;5025;48.890;9.278;2023-04-24T07:17:20;97934.28;;;11.15;74.98
9969;BME280;5025;48.890;9.278;2023-04-24T07:19:45;97922.44;;;11.21;74.69
9969;BME280;5025;48.890;9.278;2023-04-24T07:22:11;97921.66;;;11.20;73.20
9969;BME280;5025;48.890;9.278;2023-04-24T07:24:42;97929.38;;;11.11;71.90
9969;BME280;5025;48.890;9.278;2023-04-24T07:27:08;97942.00;;;11.06;72.40
9969;BME280;5025;48.890;9.278;2023-04-24T07:29:33;97932.66;;;10.91;68.94
9969;BME280;5025;48.890;9.278;2023-04-24T07:31:59;97953.06;;;10.82;67.29
9969;BME280;5025;48.890;9.278;2023-04-24T07:34:24;97959.66;;;10.69;66.03
9969;BME280;5025;48.890;9.278;2023-04-24T07:36:49;97979.13;;;10.71;66.85
9969;BME280;5025;48.890;9.278;2023-04-24T07:39:15;97962.63;;;10.68;66.47
9969;BME280;5025;48.890;9.278;2023-04-24T07:41:40;97967.75;;;10.69;66.56
9969;BME280;5025;48.890;9.278;2023-04-24T07:44:06;97963.72;;;10.72;65.55
9969;BME280;5025;48.890;9.278;2023-04-24T07:46:31;97966.31;;;10.84;66.38
9969;BME280;5025;48.890;9.278;2023-04-24T07:48:56;97967.78;;;10.91;66.08
9969;BME280;5025;48.890;9.278;2023-04-24T07:51:25;97973.06;;;11.03;64.03
9969;BME280;5025;48.890;9.278;2023-04-24T07:53:52;97964.19;;;11.08;62.58
9969;BME280;5025;48.890;9.278;2023-04-24T07:56:17;97989.63;;;11.12;62.63
9969;BME280;5025;48.890;9.278;2023-04-24T07:58:43;98004.22;;;11.11;62.35
9969;BME280;5025;48.890;9.278;2023-04-24T08:01:08;97994.53;;;11.15;61.28
9969;BME280;5025;48.890;9.278;2023-04-24T08:03:33;98002.28;;;11.06;60.08
9969;BME280;5025;48.890;9.278;2023-04-24T08:05:59;98000.81;;;10.99;60.51
9969;BME280;5025;48.890;9.278;2023-04-24T08:08:25;98000.50;;;10.95;61.29
9969;BME280;5025;48.890;9.278;2023-04-24T08:10:50;97992.34;;;10.90;62.03
9969;BME280;5025;48.890;9.278;2023-04-24T08:13:15;98014.94;;;10.84;62.70
9969;BME280;5025;48.890;9.278;2023-04-24T08:15:41;98006.53;;;10.80;61.83
9969;BME280;5025;48.890;9.278;2023-04-24T08:18:06;97998.53;;;10.68;62.03
9969;BME280;5025;48.890;9.278;2023-04-24T08:20:32;97998.53;;;10.68;63.04
9969;BME280;5025;48.890;9.278;2023-04-24T08:22:57;98013.81;;;10.63;61.63
9969;BME280;5025;48.890;9.278;2023-04-24T08:25:23;98012.47;;;10.60;61.40
9969;BME280;5025;48.890;9.278;2023-04-24T08:27:50;98016.63;;;10.68;60.70
9969;BME280;5025;48.890;9.278;2023-04-24T08:30:15;98030.50;;;10.76;59.85
9969;BME280;5025;48.890;9.278;2023-04-24T08:32:40;98008.38;;;10.80;59.57
9969;BME280;5025;48.890;9.278;2023-04-24T08:35:06;98075.25;;;10.89;58.36
9969;BME280;5025;48.890;9.278;2023-04-24T08:37:34;98021.84;;;10.97;58.12
9969;BME280;5025;48.890;9.278;2023-04-24T08:39:59;98047.50;;;10.94;54.59
9969;BME280;5025;48.890;9.278;2023-04-24T08:42:25;98030.66;;;10.87;55.38
9969;BME280;5025;48.890;9.278;2023-04-24T08:44:54;98065.00;;;10.91;56.72
9969;BME280;5025;48.890;9.278;2023-04-24T08:47:20;98041.91;;;11.01;55.71
9969;BME280;5025;48.890;9.278;2023-04-24T08:49:47;98027.41;;;11.07;56.78
9969;BME280;5025;48.890;9.278;2023-04-24T08:52:13;98032.94;;;11.17;54.81
9969;BME280;5025;48.890;9.278;2023-04-24T08:54:41;98040.31;;;11.22;54.33
9969;BME280;5025;48.890;9.278;2023-04-24T08:57:08;98052.91;;;11.16;53.01
9969;BME280;5025;48.890;9.278;2023-04-24T08:59:36;98041.22;;;11.10;53.25
9969;BME280;5025;48.890;9.278;2023-04-24T09:02:03;98043.06;;;11.05;52.65
9969;BME280;5025;48.890;9.278;2023-04-24T09:04:29;98060.88;;;11.06;53.49
9969;BME280;5025;48.890;9.278;2023-04-24T09:06:56;98056.41;;;10.94;53.14
9969;BME280;5025;48.890;9.278;2023-04-24T09:09:26;98060.19;;;10.93;54.04
9969;BME280;5025;48.890;9.278;2023-04-24T09:11:54;98043.16;;;10.93;54.15
9969;BME280;5025;48.890;9.278;2023-04-24T09:14:21;98043.00;;;10.83;54.41
9969;BME280;5025;48.890;9.278;2023-04-24T09:16:48;98045.84;;;10.93;55.18
9969;BME280;5025;48.890;9.278;2023-04-24T09:19:13;98069.97;;;11.00;54.58
9969;BME280;5025;48.890;9.278;2023-04-24T09:21:38;98048.31;;;10.94;55.10
9969;BME280;5025;48.890;9.278;2023-04-24T09:24:08;98075.88;;;10.97;55.30
9969;BME280;5025;48.890;9.278;2023-04-24T09:26:39;98080.16;;;10.92;55.30
9969;BME280;5025;48.890;9.278;2023-04-24T09:29:04;98064.84;;;10.81;55.11
9969;BME280;5025;48.890;9.278;2023-04-24T09:31:30;98063.41;;;10.73;56.00
9969;BME280;5025;48.890;9.278;2023-04-24T09:33:59;98079.84;;;10.72;56.25
9969;BME280;5025;48.890;9.278;2023-04-24T09:36:28;98072.97;;;10.64;54.99
9969;BME280;5025;48.890;9.278;2023-04-24T09:38:58;98073.31;;;10.68;55.70
9969;BME280;5025;48.890;9.278;2023-04-24T09:41:23;98087.56;;;10.63;54.68
9969;BME280;5025;48.890;9.278;2023-04-24T09:43:49;98086.16;;;10.77;55.54
9969;BME280;5025;48.890;9.278;2023-04-24T09:46:18;98084.75;;;10.75;55.66
9969;BME280;5025;48.890;9.278;2023-04-24T09:48:43;98109.16;;;10.80;55.30
9969;BME280;5025;48.890;9.278;2023-04-24T09:51:09;98084.41;;;10.88;54.78
9969;BME280;5025;48.890;9.278;2023-04-24T09:53:37;98080.22;;;10.98;56.54
9969;BME280;5025;48.890;9.278;2023-04-24T09:56:10;98092.56;;;11.10;56.95
9969;BME280;5025;48.890;9.278;2023-04-24T09:58:37;98078.38;;;11.20;56.65
9969;BME280;5025;48.890;9.278;2023-04-24T10:01:03;98083.34;;;11.28;56.38
9969;BME280;5025;48.890;9.278;2023-04-24T10:03:32;98115.78;;;11.28;56.69
9969;BME280;5025;48.890;9.278;2023-04-24T10:06:02;98099.66;;;11.17;56.02
9969;BME280;5025;48.890;9.278;2023-04-24T10:08:34;98147.22;;;10.96;54.69
9969;BME280;5025;48.890;9.278;2023-04-24T10:11:00;98112.19;;;10.84;55.08
9969;BME280;5025;48.890;9.278;2023-04-24T10:13:27;98112.66;;;10.81;55.17
9969;BME280;5025;48.890;9.278;2023-04-24T10:15:53;98097.44;;;10.91;55.49
9969;BME280;5025;48.890;9.278;2023-04-24T10:18:20;98117.78;;;11.16;56.56
9969;BME280;5025;48.890;9.278;2023-04-24T10:20:46;98118.28;;;11.35;54.68
9969;BME280;5025;48.890;9.278;2023-04-24T10:23:11;98108.19;;;11.25;53.24
9969;BME280;5025;48.890;9.278;2023-04-24T10:25:37;98105.31;;;11.15;52.30
9969;BME280;5025;48.890;9.278;2023-04-24T10:28:03;98126.06;;;11.09;53.59
9969;BME280;5025;48.890;9.278;2023-04-24T10:30:31;98136.03;;;11.09;53.18
9969;BME280;5025;48.890;9.278;2023-04-24T10:33:00;98128.44;;;11.06;53.42
9969;BME280;5025;48.890;9.278;2023-04-24T10:35:26;98134.03;;;10.99;53.62
9969;BME280;5025;48.890;9.278;2023-04-24T10:38:03;98127.56;;;10.83;53.55
9969;BME280;5025;48.890;9.278;2023-04-24T10:40:34;98142.94;;;10.83;54.63
9969;BME280;5025;48.890;9.278;2023-04-24T10:43:03;98137.72;;;10.76;54.17
9969;BME280;5025;48.890;9.278;2023-04-24T10:45:31;98145.06;;;10.81;53.91
9969;BME280;5025;48.890;9.278;2023-04-24T10:50:29;98147.34;;;10.72;55.71
9969;BME280;5025;48.890;9.278;2023-04-24T10:53:05;98149.50;;;10.70;56.15
9969;BME280;5025;48.890;9.278;2023-04-24T10:56:07;98140.34;;;10.71;55.87
9969;BME280;5025;48.890;9.278;2023-04-24T10:58:53;98155.88;;;10.64;53.44
9969;BME280;5025;48.890;9.278;2023-04-24T11:01:29;98136.41;;;10.62;54.16
9969;BME280;5025;48.890;9.278;2023-04-24T11:03:58;98157.34;;;10.71;53.77
9969;BME280;5025;48.890;9.278;2023-04-24T11:06:35;98145.88;;;10.81;54.09
9969;BME280;5025;48.890;9.278;2023-04-24T11:09:08;98169.81;;;10.89;54.17
9969;BME280;5025;48.890;9.278;2023-04-24T11:11:35;98170.44;;;10.97;53.76
9969;BME280;5025;48.890;9.278;2023-04-24T11:14:04;98184.94;;;11.07;53.40
9969;BME280;5025;48.890;9.278;2023-04-24T11:16:39;98177.16;;;11.11;52.28
9969;BME280;5025;48.890;9.278;2023-04-24T11:24:38;98187.06;;;10.88;53.16
9969;BME280;5025;48.890;9.278;2023-04-24T11:32:35;98195.72;;;11.07;53.01
9969;BME280;5025;48.890;9.278;2023-04-24T11:35:13;98184.38;;;11.05;53.28
9969;BME280;5025;48.890;9.278;2023-04-24T11:37:41;98191.16;;;11.08;53.72
9969;BME280;5025;48.890;9.278;2023-04-24T11:40:10;98183.06;;;11.08;52.65
9969;BME280;5025;48.890;9.278;2023-04-24T11:42:39;98176.00;;;11.07;53.40
9969;BME280;5025;48.890;9.278;2023-04-24T11:45:13;98181.72;;;11.10;54.21
9969;BME280;5025;48.890;9.278;2023-04-24T11:47:39;98175.59;;;11.15;54.00
9969;BME280;5025;48.890;9.278;2023-04-24T11:50:07;98176.31;;;11.10;53.04
9969;BME280;5025;48.890;9.278;2023-04-24T11:52:36;98191.06;;;11.03;53.59
9969;BME280;5025;48.890;9.278;2023-04-24T11:55:02;98176.94;;;10.96;53.45
9969;BME280;5025;48.890;9.278;2023-04-24T11:57:29;98195.91;;;11.01;54.52
9969;BME280;5025;48.890;9.278;2023-04-24T11:59:59;98222.75;;;10.90;55.54
9969;BME280;5025;48.890;9.278;2023-04-24T12:02:26;98202.78;;;10.91;56.08
9969;BME280;5025;48.890;9.278;2023-04-24T12:04:52;98198.84;;;10.99;55.77
9969;BME280;5025;48.890;9.278;2023-04-24T12:07:18;98207.28;;;11.03;55.40
9969;BME280;5025;48.890;9.278;2023-04-24T12:09:58;98198.13;;;11.04;55.12
9969;BME280;5025;48.890;9.278;2023-04-24T12:12:27;98188.97;;;11.05;54.94
9969;BME280;5025;48.890;9.278;2023-04-24T12:14:55;98209.72;;;11.04;53.87
9969;BME280;5025;48.890;9.278;2023-04-24T12:17:26;98200.88;;;11.09;53.79
9969;BME280;5025;48.890;9.278;2023-04-24T12:19:52;98195.72;;;11.07;53.24
9969;BME280;5025;48.890;9.278;2023-04-24T12:22:18;98196.47;;;11.03;52.94
9969;BME280;5025;48.890;9.278;2023-04-24T12:25:01;98193.94;;;10.96;53.79
9969;BME280;5025;48.890;9.278;2023-04-24T12:27:34;98194.19;;;10.94;53.85
9969;BME280;5025;48.890;9.278;2023-04-24T12:30:01;98212.03;;;10.96;54.49
9969;BME280;5025;48.890;9.278;2023-04-24T12:32:26;98201.25;;;10.96;57.01
9969;BME280;5025;48.890;9.278;2023-04-24T12:34:53;98198.94;;;10.87;58.63
9969;BME280;5025;48.890;9.278;2023-04-24T12:37:19;98207.19;;;10.81;57.68
9969;BME280;5025;48.890;9.278;2023-04-24T12:40:04;98243.13;;;10.81;59.77
9969;BME280;5025;48.890;9.278;2023-04-24T12:42:31;98209.81;;;10.75;57.66
9969;BME280;5025;48.890;9.278;2023-04-24T12:45:01;98209.56;;;10.77;57.36
9969;BME280;5025;48.890;9.278;2023-04-24T12:47:29;98204.31;;;10.70;56.90
9969;BME280;5025;48.890;9.278;2023-04-24T12:49:54;98213.56;;;10.74;57.84
9969;BME280;5025;48.890;9.278;2023-04-24T12:52:21;98210.06;;;10.74;56.02
9969;BME280;5025;48.890;9.278;2023-04-24T12:54:47;98212.03;;;10.79;56.54
9969;BME280;5025;48.890;9.278;2023-04-24T12:57:13;98212.34;;;10.82;56.72
9969;BME280;5025;48.890;9.278;2023-04-24T12:59:38;98204.09;;;10.89;56.67
9969;BME280;5025;48.890;9.278;2023-04-24T13:02:04;98215.63;;;10.84;55.76
9969;BME280;5025;48.890;9.278;2023-04-24T13:04:30;98221.75;;;10.80;56.68
9969;BME280;5025;48.890;9.278;2023-04-24T13:06:55;98219.28;;;10.78;56.76
9969;BME280;5025;48.890;9.278;2023-04-24T13:09:20;98213.34;;;10.76;56.95
9969;BME280;5025;48.890;9.278;2023-04-24T13:11:46;98212.16;;;10.72;57.18
9969;BME280;5025;48.890;9.278;2023-04-24T13:14:11;98233.44;;;10.68;59.44
9969;BME280;5025;48.890;9.278;2023-04-24T13:16:36;98222.72;;;10.73;61.25
9969;BME280;5025;48.890;9.278;2023-04-24T13:19:01;98225.44;;;10.90;60.71
9969;BME280;5025;48.890;9.278;2023-04-24T13:21:27;98207.88;;;11.05;58.81
9969;BME280;5025;48.890;9.278;2023-04-24T13:23:52;98208.25;;;11.30;58.03
9969;BME280;5025;48.890;9.278;2023-04-24T13:26:18;98213.81;;;11.41;58.75
9969;BME280;5025;48.890;9.278;2023-04-24T13:28:43;98206.75;;;11.40;57.11
9969;BME280;5025;48.890;9.278;2023-04-24T13:31:09;98210.69;;;11.32;57.40
9969;BME280;5025;48.890;9.278;2023-04-24T13:33:34;98213.66;;;11.13;57.06